Time;durP1;ratioP1;P1;durP2;ratioP2;P2;SDS_P1;SDS_P2;PMS_P1;PMS_P2;Temp;Humidity;BMP_temperature;BMP_pressure;BME280_temperature;BME280_humidity;BME280_pressure;Samples;Min_cycle;Max_cycle;Signal;HPM_P1;HPM_P2
2023/05/02 00:00:32;;;;;;;3.13;2.83;;;12.50;84.20;;;;;;4993322;28;20549;-64
2023/05/02 00:02:58;;;;;;;2.65;2.45;;;12.50;85.10;;;;;;4994516;28;20558;-64
2023/05/02 00:05:23;;;;;;;2.90;2.60;;;12.40;84.20;;;;;;4993550;28;20041;-64
2023/05/02 00:07:50;;;;;;;3.10;2.83;;;12.40;84.10;;;;;;4993540;28;20697;-63
2023/05/02 00:10:16;;;;;;;2.90;2.58;;;12.40;84.00;;;;;;4995987;28;20441;-63
2023/05/02 00:12:42;;;;;;;2.83;2.63;;;12.40;84.00;;;;;;4993054;28;20021;-64
2023/05/02 00:15:09;;;;;;;2.95;2.75;;;12.40;84.00;;;;;;4993517;28;20030;-64
2023/05/02 00:17:35;;;;;;;4.40;2.85;;;12.40;83.80;;;;;;4991146;28;20113;-63
2023/05/02 00:20:03;;;;;;;3.88;2.90;;;12.40;83.80;;;;;;4995667;28;20452;-64
2023/05/02 00:22:29;;;;;;;3.10;2.90;;;12.40;83.80;;;;;;4996286;28;20073;-65
2023/05/02 00:24:57;;;;;;;3.63;2.97;;;12.40;83.80;;;;;;4993839;28;20066;-64
2023/05/02 00:27:24;;;;;;;3.40;3.10;;;12.40;83.80;;;;;;4994545;28;20620;-64
2023/05/02 00:29:51;;;;;;;3.00;2.80;;;12.40;83.60;;;;;;4994028;28;20053;-64
2023/05/02 00:32:17;;;;;;;3.40;3.10;;;12.40;83.50;;;;;;4994283;28;20128;-64
2023/05/02 00:34:43;;;;;;;3.17;2.97;;;12.30;83.30;;;;;;4995389;28;20527;-64
2023/05/02 00:37:08;;;;;;;2.83;2.63;;;12.30;83.40;;;;;;4996168;28;20057;-64
2023/05/02 00:39:34;;;;;;;2.83;2.63;;;12.30;83.20;;;;;;4994410;28;20346;-64
2023/05/02 00:42:00;;;;;;;3.10;2.90;;;12.30;83.20;;;;;;4994601;28;20048;-64
2023/05/02 00:44:26;;;;;;;2.90;2.70;;;12.30;83.20;;;;;;4996760;28;20069;-64
2023/05/02 00:46:53;;;;;;;2.90;2.65;;;12.30;83.40;;;;;;4995133;28;20948;-64
2023/05/02 00:49:19;;;;;;;3.63;2.97;;;12.20;83.40;;;;;;4996684;28;20045;-64
2023/05/02 00:51:45;;;;;;;3.20;3.00;;;12.20;83.40;;;;;;4995438;28;20106;-64
2023/05/02 00:54:12;;;;;;;3.30;3.03;;;12.20;83.40;;;;;;4993649;28;20042;-64
2023/05/02 00:56:37;;;;;;;2.95;2.75;;;12.20;83.40;;;;;;4991693;28;20117;-64
2023/05/02 00:59:04;;;;;;;3.15;2.85;;;12.20;83.50;;;;;;4994635;28;20405;-64
2023/05/02 01:01:58;;;;;;;3.17;2.92;;;12.10;83.50;;;;;;4995801;28;20152;-64
2023/05/02 01:04:30;;;;;;;3.30;2.70;;;12.10;84.60;;;;;;4997535;28;20034;-63
2023/05/02 01:07:06;;;;;;;3.45;3.10;;;12.10;83.40;;;;;;4993330;28;20038;-65
2023/05/02 01:09:52;;;;;;;4.55;3.03;;;12.10;83.90;;;;;;4993616;28;20030;-64
2023/05/02 01:12:44;;;;;;;3.30;3.00;;;12.00;83.60;;;;;;4994604;28;20033;-64
2023/05/02 01:15:15;;;;;;;2.83;2.50;;;12.00;84.10;;;;;;5004746;28;20504;-64
2023/05/02 01:17:42;;;;;;;3.60;2.80;;;12.00;83.70;;;;;;5010878;28;20049;-64
2023/05/02 01:20:13;;;;;;;3.15;2.95;;;12.00;83.80;;;;;;4999569;28;20077;-64
2023/05/02 01:22:39;;;;;;;3.05;2.83;;;12.00;83.90;;;;;;4992246;28;20620;-64
2023/05/02 01:25:47;;;;;;;2.80;2.60;;;12.00;83.80;;;;;;4994813;28;20038;-64
2023/05/02 01:28:32;;;;;;;2.90;2.70;;;12.00;84.20;;;;;;4992844;28;20398;-64
2023/05/02 01:30:59;;;;;;;3.00;2.70;;;12.00;84.30;;;;;;4991910;28;20030;-64
2023/05/02 01:33:27;;;;;;;3.00;2.80;;;12.00;83.90;;;;;;4998112;28;20032;-63
2023/05/02 01:35:53;;;;;;;3.50;2.67;;;11.90;83.90;;;;;;5011647;28;20584;-64
2023/05/02 01:38:21;;;;;;;3.35;3.00;;;11.90;83.70;;;;;;5012281;28;20041;-64
2023/05/02 01:40:49;;;;;;;3.20;3.00;;;11.90;83.70;;;;;;4993624;28;20227;-64
2023/05/02 01:43:15;;;;;;;3.15;2.92;;;11.90;83.70;;;;;;4987874;28;20031;-63
2023/05/02 01:45:44;;;;;;;2.78;2.58;;;11.90;83.80;;;;;;4991848;28;20430;-63
2023/05/02 01:48:11;;;;;;;3.63;2.75;;;12.00;84.00;;;;;;4992910;28;20034;-64
2023/05/02 01:50:40;;;;;;;3.42;2.60;;;11.90;84.00;;;;;;4989710;28;20036;-64
2023/05/02 01:53:10;;;;;;;3.10;2.90;;;11.80;84.00;;;;;;4992936;28;20062;-64
2023/05/02 01:55:37;;;;;;;3.58;3.00;;;11.80;84.00;;;;;;4994817;28;20357;-64
2023/05/02 01:58:04;;;;;;;3.30;3.10;;;11.80;84.00;;;;;;4991757;28;20121;-64
2023/05/02 02:00:32;;;;;;;3.33;3.03;;;11.80;84.10;;;;;;4993403;28;20037;-64
2023/05/02 02:02:59;;;;;;;3.40;3.10;;;11.80;84.20;;;;;;4989909;28;20177;-64
2023/05/02 02:05:26;;;;;;;2.97;2.78;;;11.80;84.30;;;;;;4994683;28;20042;-64
2023/05/02 02:07:52;;;;;;;3.17;2.95;;;11.70;84.30;;;;;;4992446;28;20121;-64
2023/05/02 02:10:18;;;;;;;3.45;3.00;;;11.80;84.50;;;;;;4994832;28;20180;-64
2023/05/02 02:12:51;;;;;;;3.20;3.00;;;11.70;84.50;;;;;;4994832;28;20504;-64
2023/05/02 02:15:20;;;;;;;3.43;3.03;;;11.70;84.80;;;;;;4994242;28;20022;-64
2023/05/02 02:17:57;;;;;;;3.28;3.05;;;11.70;84.50;;;;;;4993189;28;20072;-64
2023/05/02 02:20:23;;;;;;;3.63;3.33;;;11.70;84.90;;;;;;4993800;28;20450;-64
2023/05/02 02:22:51;;;;;;;5.18;3.22;;;11.70;84.60;;;;;;4997476;28;20042;-64
2023/05/02 02:25:17;;;;;;;3.95;3.65;;;11.70;84.60;;;;;;4997569;28;20375;-64
2023/05/02 02:27:43;;;;;;;4.18;3.78;;;11.70;84.60;;;;;;4995637;28;20045;-64
2023/05/02 02:30:09;;;;;;;4.57;3.60;;;11.70;84.60;;;;;;4995426;28;20043;-64
2023/05/02 02:32:35;;;;;;;3.90;3.58;;;11.70;84.70;;;;;;4996211;28;20030;-64
2023/05/02 02:35:02;;;;;;;3.70;3.40;;;11.70;84.60;;;;;;4996299;28;20034;-64
2023/05/02 02:37:39;;;;;;;4.20;3.90;;;11.70;84.60;;;;;;4997262;28;20042;-64
2023/05/02 02:40:26;;;;;;;4.03;3.60;;;11.70;84.60;;;;;;4996466;28;20096;-64
2023/05/02 02:43:14;;;;;;;4.30;3.90;;;11.70;84.80;;;;;;4999603;28;20038;-64
2023/05/02 02:45:59;;;;;;;4.13;3.80;;;11.70;84.70;;;;;;4997119;28;20034;-63
2023/05/02 02:48:32;;;;;;;5.97;4.23;;;11.60;84.80;;;;;;4995305;28;20291;-64
2023/05/02 02:51:17;;;;;;;5.35;4.60;;;11.60;84.30;;;;;;4996333;28;20038;-64
2023/05/02 02:54:01;;;;;;;5.10;4.20;;;11.60;84.70;;;;;;4995293;28;20513;-64
2023/05/02 02:56:35;;;;;;;4.63;4.22;;;11.60;85.60;;;;;;4996886;28;20034;-64
2023/05/02 02:59:41;;;;;;;4.65;4.25;;;11.60;84.40;;;;;;4997846;28;20045;-64
2023/05/02 03:02:07;;;;;;;;;;;11.60;85.30;;;;;;4992150;28;20034;-64
2023/05/02 03:04:37;;;;;;;3.97;3.58;;;11.60;85.10;;;;;;5008541;28;19917;-64
2023/05/02 03:07:03;;;;;;;4.78;4.35;;;11.50;84.10;;;;;;4995165;28;20132;-64
2023/05/02 03:09:43;;;;;;;4.68;4.28;;;11.50;84.10;;;;;;5003408;28;20046;-64
2023/05/02 03:12:09;;;;;;;4.68;4.28;;;11.50;84.50;;;;;;5019495;28;20212;-64
2023/05/02 03:14:36;;;;;;;4.50;4.10;;;11.40;84.20;;;;;;5016596;28;20083;-64
2023/05/02 03:17:02;;;;;;;5.85;4.30;;;11.40;84.20;;;;;;5012478;28;20552;-64
2023/05/02 03:19:28;;;;;;;4.30;3.90;;;11.40;84.10;;;;;;5011434;28;20049;-64
2023/05/02 03:21:54;;;;;;;4.45;4.05;;;11.40;84.10;;;;;;5014770;28;20088;-64
2023/05/02 03:24:19;;;;;;;4.75;4.35;;;11.30;84.00;;;;;;5010639;28;20042;-63
2023/05/02 03:26:46;;;;;;;5.03;4.63;;;11.30;83.90;;;;;;5010351;28;20033;-63
2023/05/02 03:29:12;;;;;;;4.93;4.50;;;11.30;83.90;;;;;;5014595;28;20030;-64
2023/05/02 03:31:38;;;;;;;5.22;4.70;;;11.20;84.00;;;;;;5013496;28;20048;-63
2023/05/02 03:34:03;;;;;;;4.95;4.53;;;11.20;84.10;;;;;;5015001;28;20037;-63
2023/05/02 03:36:29;;;;;;;5.20;4.25;;;11.20;84.10;;;;;;5014537;28;20073;-64
2023/05/02 03:38:55;;;;;;;5.53;5.03;;;11.10;84.10;;;;;;5012178;28;20037;-64
2023/05/02 03:41:20;;;;;;;9.40;5.03;;;11.10;84.10;;;;;;5016966;28;20094;-63
2023/05/02 03:43:46;;;;;;;5.00;4.50;;;11.10;84.00;;;;;;5014484;28;20037;-63
2023/05/02 03:46:11;;;;;;;5.32;4.80;;;11.10;84.00;;;;;;5014045;28;20061;-64
2023/05/02 03:48:37;;;;;;;5.57;5.07;;;11.00;84.10;;;;;;5015263;28;20088;-64
2023/05/02 03:51:05;;;;;;;5.68;5.18;;;11.00;84.50;;;;;;5014716;28;20121;-64
2023/05/02 03:53:30;;;;;;;5.78;4.60;;;10.90;84.60;;;;;;5013463;28;20515;-64
2023/05/02 03:55:56;;;;;;;5.57;5.05;;;10.90;84.90;;;;;;5014878;28;20112;-64
2023/05/02 03:58:22;;;;;;;6.15;5.28;;;10.90;85.00;;;;;;5015332;28;20046;-65
2023/05/02 04:00:48;;;;;;;6.97;6.28;;;10.90;85.00;;;;;;5014708;28;20980;-65
2023/05/02 04:03:13;;;;;;;7.78;6.97;;;10.90;85.00;;;;;;5016407;28;20037;-65
2023/05/02 04:05:39;;;;;;;15.20;8.55;;;10.90;85.00;;;;;;5016412;28;20297;-64
2023/05/02 04:08:05;;;;;;;9.60;7.45;;;10.90;85.10;;;;;;5013621;28;20037;-64
2023/05/02 04:10:30;;;;;;;10.77;7.85;;;10.90;85.10;;;;;;5015765;28;20041;-65
2023/05/02 04:12:56;;;;;;;8.73;7.78;;;10.90;85.20;;;;;;5014493;28;20468;-64
2023/05/02 04:15:21;;;;;;;7.68;6.85;;;10.90;85.50;;;;;;5010809;28;20041;-64
2023/05/02 04:17:47;;;;;;;7.60;6.80;;;10.90;85.20;;;;;;5011033;28;20034;-65
2023/05/02 04:20:13;;;;;;;7.00;6.30;;;10.90;85.30;;;;;;5014574;28;20054;-65
2023/05/02 04:22:39;;;;;;;7.63;6.82;;;10.90;85.50;;;;;;5010719;28;20083;-64
2023/05/02 04:25:06;;;;;;;7.72;6.75;;;10.90;85.70;;;;;;5011225;28;20037;-64
2023/05/02 04:27:32;;;;;;;7.45;6.75;;;10.90;86.00;;;;;;5013229;28;20566;-65
2023/05/02 04:29:57;;;;;;;8.95;8.05;;;10.80;86.20;;;;;;5013178;28;20053;-64
2023/05/02 04:32:23;;;;;;;11.85;10.57;;;10.80;86.40;;;;;;5017345;28;20072;-65
2023/05/02 04:34:49;;;;;;;11.18;9.50;;;10.80;86.60;;;;;;5016312;28;20029;-65
2023/05/02 04:37:15;;;;;;;12.13;9.07;;;10.80;86.90;;;;;;5016633;28;20053;-65
2023/05/02 04:39:41;;;;;;;8.95;7.85;;;10.80;87.30;;;;;;5014815;28;20505;-64
2023/05/02 04:42:06;;;;;;;9.15;8.18;;;10.70;87.30;;;;;;5015925;28;20049;-65
2023/05/02 04:44:32;;;;;;;9.88;8.88;;;10.70;87.60;;;;;;5016800;28;20042;-65
2023/05/02 04:46:57;;;;;;;9.98;8.43;;;10.80;87.80;;;;;;5017568;28;20042;-64
2023/05/02 04:49:23;;;;;;;9.32;8.38;;;10.70;88.00;;;;;;5017116;28;20033;-64
2023/05/02 04:51:50;;;;;;;9.73;8.68;;;10.70;88.20;;;;;;5016925;28;20700;-65
2023/05/02 04:54:16;;;;;;;12.48;9.98;;;10.70;88.50;;;;;;5016669;28;20121;-64
2023/05/02 04:56:42;;;;;;;10.02;8.95;;;10.70;88.60;;;;;;5016845;28;20205;-65
2023/05/02 04:59:07;;;;;;;10.40;9.05;;;10.70;88.80;;;;;;5016393;28;20049;-65
2023/05/02 05:01:33;;;;;;;10.73;9.38;;;10.80;89.00;;;;;;5016830;28;20029;-64
2023/05/02 05:03:58;;;;;;;12.02;9.98;;;10.70;89.10;;;;;;5016980;28;20339;-64
2023/05/02 05:06:25;;;;;;;11.93;9.75;;;10.70;89.30;;;;;;5015934;28;20046;-64
2023/05/02 05:08:50;;;;;;;13.35;9.60;;;10.80;89.50;;;;;;5015156;28;20040;-64
2023/05/02 05:11:16;;;;;;;11.85;9.95;;;10.80;89.70;;;;;;5018023;28;20033;-65
2023/05/02 05:13:42;;;;;;;13.02;9.40;;;10.90;90.00;;;;;;5015836;28;20406;-65
2023/05/02 05:16:07;;;;;;;12.63;9.80;;;10.90;90.00;;;;;;5017454;28;20044;-64
2023/05/02 05:18:39;;;;;;;10.70;9.60;;;10.90;90.10;;;;;;5015509;28;20049;-64
2023/05/02 05:21:08;;;;;;;11.85;9.50;;;11.00;90.20;;;;;;5016025;28;20041;-64
2023/05/02 05:23:35;;;;;;;11.95;9.32;;;11.10;90.20;;;;;;5016003;28;20600;-65
2023/05/02 05:26:16;;;;;;;11.00;9.32;;;11.10;90.10;;;;;;5014847;28;20245;-65
2023/05/02 05:28:42;;;;;;;10.95;9.25;;;11.20;90.30;;;;;;5015958;28;20030;-65
2023/05/02 05:31:12;;;;;;;10.70;9.23;;;11.20;90.00;;;;;;5016804;28;20042;-64
2023/05/02 05:33:38;;;;;;;15.52;9.05;;;11.20;90.00;;;;;;5015219;28;20072;-64
2023/05/02 05:36:08;;;;;;;10.15;8.77;;;11.30;90.00;;;;;;5015512;28;20735;-64
2023/05/02 05:38:33;;;;;;;11.02;9.57;;;11.30;90.00;;;;;;5015810;28;20401;-64
2023/05/02 05:41:00;;;;;;;12.07;9.55;;;11.40;89.90;;;;;;5015679;28;20048;-64
2023/05/02 05:43:26;;;;;;;12.90;9.80;;;11.40;89.90;;;;;;5015394;28;20073;-64
2023/05/02 05:45:52;;;;;;;12.65;9.32;;;11.50;89.80;;;;;;5016685;28;20057;-65
2023/05/02 05:48:18;;;;;;;11.07;9.25;;;11.60;89.70;;;;;;5016852;28;20034;-65
2023/05/02 05:50:44;;;;;;;10.05;8.95;;;11.60;89.50;;;;;;5018661;28;20061;-64
2023/05/02 05:53:10;;;;;;;12.25;8.70;;;11.70;89.30;;;;;;5020759;28;20444;-65
2023/05/02 05:55:37;;;;;;;11.30;8.80;;;11.70;89.30;;;;;;5019427;28;20492;-65
2023/05/02 05:58:03;;;;;;;9.68;8.68;;;11.80;89.30;;;;;;5020160;28;20034;-65
2023/05/02 06:00:28;;;;;;;10.02;9.02;;;11.80;89.20;;;;;;5019060;28;20087;-64
2023/05/02 06:02:54;;;;;;;9.35;8.35;;;11.90;89.20;;;;;;5019898;28;20048;-64
2023/05/02 06:05:20;;;;;;;9.60;8.55;;;11.90;89.20;;;;;;5020560;28;20041;-64
2023/05/02 06:07:45;;;;;;;10.23;8.63;;;11.90;89.20;;;;;;5020895;28;20041;-65
2023/05/02 06:10:11;;;;;;;8.90;8.00;;;12.00;89.20;;;;;;5020680;28;20429;-64
2023/05/02 06:12:36;;;;;;;9.00;7.88;;;12.10;88.90;;;;;;5020477;28;20045;-64
2023/05/02 06:15:02;;;;;;;9.68;7.80;;;12.10;88.80;;;;;;5018336;28;20040;-64
2023/05/02 06:17:28;;;;;;;9.18;8.20;;;12.20;88.70;;;;;;5019079;28;20030;-65
2023/05/02 06:19:53;;;;;;;8.45;7.50;;;12.20;88.50;;;;;;5019155;28;20433;-65
2023/05/02 06:22:19;;;;;;;12.02;8.43;;;12.20;88.30;;;;;;5017944;28;20133;-64
2023/05/02 06:24:44;;;;;;;8.85;7.95;;;12.30;88.20;;;;;;5018545;28;20057;-65
2023/05/02 06:27:10;;;;;;;9.52;8.25;;;12.30;87.80;;;;;;5019473;28;20045;-65
2023/05/02 06:29:35;;;;;;;9.23;8.10;;;12.30;87.80;;;;;;5018666;28;20034;-64
2023/05/02 06:32:01;;;;;;;10.02;8.73;;;12.40;87.60;;;;;;5017921;28;20046;-65
2023/05/02 06:34:27;;;;;;;8.63;7.75;;;12.40;87.60;;;;;;5018726;28;20485;-64
2023/05/02 06:36:55;;;;;;;9.70;8.40;;;12.40;87.60;;;;;;5001760;28;20119;-65
2023/05/02 06:39:21;;;;;;;8.65;7.75;;;12.40;87.10;;;;;;5019377;28;20452;-64
2023/05/02 06:41:47;;;;;;;9.57;7.50;;;12.50;86.70;;;;;;5018392;28;20057;-65
2023/05/02 06:44:13;;;;;;;8.95;7.50;;;12.50;86.60;;;;;;5020189;28;20308;-65
2023/05/02 06:46:39;;;;;;;9.20;8.13;;;12.60;86.90;;;;;;5018451;28;20447;-65
2023/05/02 06:49:04;;;;;;;9.30;7.63;;;12.60;86.90;;;;;;5018553;28;20042;-64
2023/05/02 06:51:31;;;;;;;9.05;8.15;;;12.70;86.90;;;;;;5018462;28;20042;-65
2023/05/02 06:53:56;;;;;;;9.25;7.70;;;12.80;86.70;;;;;;5018460;28;20105;-65
2023/05/02 06:56:24;;;;;;;8.80;7.90;;;12.90;86.10;;;;;;5018133;28;20738;-64
2023/05/02 06:58:50;;;;;;;8.20;7.43;;;12.90;85.70;;;;;;5018174;28;20281;-65
2023/05/02 07:01:15;;;;;;;8.98;8.07;;;13.00;85.60;;;;;;5018781;28;20045;-64
2023/05/02 07:03:41;;;;;;;8.40;7.60;;;13.10;85.30;;;;;;5017181;28;20112;-64
2023/05/02 07:06:07;;;;;;;8.27;7.43;;;13.10;85.30;;;;;;5016209;28;20176;-64
2023/05/02 07:08:32;;;;;;;8.07;7.28;;;13.10;85.20;;;;;;5017053;28;20029;-64
2023/05/02 07:10:58;;;;;;;8.65;7.15;;;13.10;85.00;;;;;;5020357;28;20107;-65
2023/05/02 07:13:23;;;;;;;8.48;7.57;;;13.30;84.60;;;;;;5019296;28;20120;-64
2023/05/02 07:15:49;;;;;;;7.55;6.75;;;13.30;84.00;;;;;;5017545;28;20069;-64
2023/05/02 07:18:14;;;;;;;7.82;7.10;;;13.30;83.60;;;;;;5018041;28;20598;-63
2023/05/02 07:20:41;;;;;;;8.40;7.50;;;13.40;83.70;;;;;;5017591;28;20397;-64
2023/05/02 07:23:08;;;;;;;8.75;7.90;;;13.30;83.80;;;;;;5017489;28;20036;-64
2023/05/02 07:25:34;;;;;;;8.75;7.85;;;13.40;83.90;;;;;;5018215;28;20098;-64
2023/05/02 07:27:59;;;;;;;8.25;7.43;;;13.50;84.00;;;;;;5017389;28;20112;-64
2023/05/02 07:30:25;;;;;;;7.63;6.90;;;13.50;83.70;;;;;;5018722;28;20156;-64
2023/05/02 07:32:50;;;;;;;8.00;7.20;;;13.60;83.50;;;;;;5018124;28;20490;-65
2023/05/02 07:35:16;;;;;;;7.22;6.53;;;13.60;83.20;;;;;;5017446;28;20033;-64
2023/05/02 07:37:42;;;;;;;7.25;6.55;;;13.70;83.10;;;;;;5017885;28;20034;-64
2023/05/02 07:40:08;;;;;;;7.60;6.88;;;13.70;82.60;;;;;;5017336;28;20038;-64
2023/05/02 07:42:35;;;;;;;9.30;8.38;;;13.70;82.60;;;;;;5018303;28;20033;-64
2023/05/02 07:45:00;;;;;;;8.05;7.25;;;13.70;82.70;;;;;;5017976;28;20072;-64
2023/05/02 07:47:26;;;;;;;7.80;7.07;;;13.70;82.80;;;;;;5015839;28;20037;-64
2023/05/02 07:49:53;;;;;;;7.63;6.93;;;13.70;82.60;;;;;;5017358;28;20163;-64
2023/05/02 07:52:20;;;;;;;7.93;7.03;;;13.70;82.40;;;;;;5016315;28;20245;-65
2023/05/02 07:54:48;;;;;;;9.43;7.20;;;13.70;82.40;;;;;;5016974;28;20041;-64
2023/05/02 07:57:13;;;;;;;8.68;7.20;;;13.70;82.40;;;;;;5015665;28;20455;-64
2023/05/02 07:59:39;;;;;;;7.30;6.60;;;13.80;82.30;;;;;;5017745;28;21314;-64
2023/05/02 08:02:05;;;;;;;7.35;6.68;;;13.80;82.80;;;;;;5013549;28;20034;-64
2023/05/02 08:04:30;;;;;;;8.35;6.63;;;13.70;81.70;;;;;;5018805;28;20038;-64
2023/05/02 08:06:56;;;;;;;8.32;7.30;;;13.70;81.60;;;;;;5019639;28;20390;-64
2023/05/02 08:09:22;;;;;;;7.72;6.80;;;13.80;81.90;;;;;;5019026;28;20061;-64
2023/05/02 08:11:47;;;;;;;8.05;6.90;;;13.80;82.40;;;;;;5016956;28;20034;-64
2023/05/02 08:14:15;;;;;;;7.20;6.50;;;13.80;82.40;;;;;;5016607;28;20440;-64
2023/05/02 08:16:41;;;;;;;7.10;6.32;;;13.80;82.20;;;;;;5016919;28;20061;-64
2023/05/02 08:19:06;;;;;;;7.43;6.35;;;13.80;81.90;;;;;;5017612;28;20528;-64
2023/05/02 08:21:32;;;;;;;7.18;6.47;;;13.80;81.70;;;;;;5017960;28;20045;-64
2023/05/02 08:23:59;;;;;;;7.47;6.60;;;13.90;81.80;;;;;;5018339;28;20042;-64
2023/05/02 08:26:25;;;;;;;7.00;6.40;;;14.00;82.00;;;;;;5016999;28;20057;-64
2023/05/02 08:28:51;;;;;;;7.00;6.30;;;13.90;82.00;;;;;;5017949;28;20498;-64
2023/05/02 08:31:16;;;;;;;7.43;6.72;;;14.00;82.10;;;;;;5016848;28;20068;-64
2023/05/02 08:33:42;;;;;;;7.00;6.32;;;14.10;82.00;;;;;;5017630;28;20041;-64
2023/05/02 08:36:15;;;;;;;7.40;6.53;;;14.10;81.70;;;;;;5018525;28;20493;-64
2023/05/02 08:38:43;;;;;;;6.43;5.60;;;14.20;81.90;;;;;;5018106;28;20513;-64
2023/05/02 08:41:13;;;;;;;7.53;6.03;;;14.30;81.90;;;;;;5017030;28;20042;-64
2023/05/02 08:43:39;;;;;;;7.00;6.30;;;14.30;81.70;;;;;;5015383;28;20125;-64
2023/05/02 08:46:07;;;;;;;7.05;6.22;;;14.40;81.50;;;;;;5014952;28;20033;-64
2023/05/02 08:48:35;;;;;;;9.05;6.72;;;14.50;81.50;;;;;;5017440;28;20068;-64
2023/05/02 08:51:02;;;;;;;7.75;6.95;;;14.50;81.60;;;;;;5017270;28;20477;-64
2023/05/02 08:53:33;;;;;;;7.70;6.47;;;14.50;81.20;;;;;;5018304;28;20075;-64
2023/05/02 08:55:59;;;;;;;7.45;6.72;;;14.60;80.80;;;;;;5018475;28;20037;-64
2023/05/02 08:58:25;;;;;;;6.93;6.22;;;14.60;81.00;;;;;;5017745;28;20128;-64
2023/05/02 09:00:52;;;;;;;6.93;6.32;;;14.60;81.20;;;;;;5016318;28;20458;-64
2023/05/02 09:03:31;;;;;;;7.40;6.70;;;14.70;81.10;;;;;;5018474;28;20036;-64
2023/05/02 09:06:08;;;;;;;7.22;6.53;;;14.70;80.40;;;;;;5015860;28;20030;-63
2023/05/02 09:08:35;;;;;;;7.63;6.55;;;14.80;80.50;;;;;;5017400;28;20041;-64
2023/05/02 09:11:02;;;;;;;7.30;6.60;;;14.80;80.80;;;;;;5016014;28;20033;-63
2023/05/02 09:13:35;;;;;;;7.88;7.07;;;14.90;80.70;;;;;;5016120;28;20041;-64
2023/05/02 09:16:03;;;;;;;7.78;7.05;;;14.90;79.80;;;;;;5017208;28;20399;-64
2023/05/02 09:18:33;;;;;;;8.20;7.40;;;14.90;79.90;;;;;;5016914;28;20049;-65
2023/05/02 09:21:02;;;;;;;7.80;7.10;;;15.00;79.50;;;;;;5016643;28;20156;-63
2023/05/02 09:23:35;;;;;;;8.27;7.47;;;15.00;79.60;;;;;;5016810;28;20022;-64
2023/05/02 09:26:00;;;;;;;8.98;6.90;;;15.10;79.80;;;;;;5015810;28;20041;-64
2023/05/02 09:28:41;;;;;;;8.45;7.63;;;15.20;80.10;;;;;;5017461;28;20105;-64
2023/05/02 09:31:09;;;;;;;10.82;7.20;;;15.30;77.70;;;;;;5017623;28;20064;-64
2023/05/02 09:33:35;;;;;;;8.00;7.22;;;15.40;77.90;;;;;;5016580;28;20030;-64
2023/05/02 09:36:01;;;;;;;8.43;7.05;;;15.30;77.30;;;;;;5016913;28;20448;-64
2023/05/02 09:38:27;;;;;;;8.70;7.10;;;15.30;77.00;;;;;;5015457;28;20090;-64
2023/05/02 09:40:56;;;;;;;9.80;7.15;;;15.30;77.60;;;;;;5016292;28;20041;-64
2023/05/02 09:43:22;;;;;;;9.27;7.25;;;15.30;78.00;;;;;;5017289;28;20560;-64
2023/05/02 09:45:57;;;;;;;8.95;8.05;;;15.30;78.00;;;;;;5016410;28;20067;-64
2023/05/02 09:48:23;;;;;;;8.65;7.80;;;15.40;77.50;;;;;;5016269;28;20029;-64
2023/05/02 09:50:49;;;;;;;8.93;8.02;;;15.40;78.00;;;;;;5016005;28;20373;-64
2023/05/02 09:53:14;;;;;;;9.27;8.30;;;15.40;77.30;;;;;;5015667;28;20049;-65
2023/05/02 09:55:40;;;;;;;7.93;7.13;;;15.40;77.20;;;;;;5016418;28;20045;-64
2023/05/02 09:58:06;;;;;;;9.05;8.15;;;15.40;76.50;;;;;;5016443;28;20038;-64
2023/05/02 10:00:43;;;;;;;8.18;6.93;;;15.40;75.60;;;;;;5015809;28;20506;-65
2023/05/02 10:03:09;;;;;;;7.93;6.97;;;15.40;76.10;;;;;;5017170;28;20084;-64
2023/05/02 10:05:39;;;;;;;8.40;7.50;;;15.40;76.80;;;;;;5017033;28;20052;-64
2023/05/02 10:08:06;;;;;;;8.90;7.55;;;15.50;76.20;;;;;;5017069;28;20051;-64
2023/05/02 10:10:36;;;;;;;8.38;7.53;;;15.50;76.10;;;;;;5018728;28;20061;-64
2023/05/02 10:13:04;;;;;;;7.50;6.80;;;15.60;76.80;;;;;;5015937;28;20505;-64
2023/05/02 10:15:31;;;;;;;8.50;7.53;;;15.60;76.60;;;;;;5016818;28;20096;-64
2023/05/02 10:17:59;;;;;;;8.45;6.78;;;15.70;76.60;;;;;;5015966;28;20361;-64
2023/05/02 10:20:34;;;;;;;8.20;7.40;;;15.80;76.10;;;;;;5016380;28;20061;-64
2023/05/02 10:23:00;;;;;;;8.02;7.32;;;15.90;75.60;;;;;;5017283;28;20034;-64
2023/05/02 10:25:27;;;;;;;8.23;7.43;;;16.00;75.40;;;;;;5016093;28;20036;-64
2023/05/02 10:27:57;;;;;;;9.77;8.27;;;16.00;74.80;;;;;;5017922;28;20117;-64
2023/05/02 10:30:23;;;;;;;8.25;7.45;;;16.00;74.20;;;;;;5015247;28;20579;-64
2023/05/02 10:32:51;;;;;;;7.88;7.18;;;16.00;74.90;;;;;;5014859;28;20425;-63
2023/05/02 10:35:17;;;;;;;8.18;7.35;;;16.10;74.80;;;;;;5016832;28;20045;-64
2023/05/02 10:37:44;;;;;;;8.05;7.30;;;16.20;75.30;;;;;;5017628;28;20501;-64
2023/05/02 10:40:12;;;;;;;8.85;7.95;;;16.20;75.00;;;;;;5020002;28;20053;-64
2023/05/02 10:42:40;;;;;;;8.15;7.18;;;16.30;74.10;;;;;;5019076;28;20646;-64
2023/05/02 10:45:28;;;;;;;8.85;7.43;;;16.30;73.70;;;;;;5022143;28;20580;-64
2023/05/02 10:48:21;;;;;;;7.82;7.13;;;16.40;73.30;;;;;;5021069;28;20048;-64
2023/05/02 10:50:54;;;;;;;8.43;6.97;;;16.40;73.50;;;;;;5020236;28;20112;-64
2023/05/02 10:53:38;;;;;;;8.25;7.43;;;16.50;73.80;;;;;;5019953;28;20230;-64
2023/05/02 10:56:15;;;;;;;8.50;7.25;;;16.50;73.70;;;;;;5020913;28;20120;-64
2023/05/02 10:58:42;;;;;;;8.45;7.22;;;16.60;73.90;;;;;;5020083;28;20497;-65
2023/05/02 11:01:27;;;;;;;8.05;7.28;;;16.70;73.60;;;;;;5019547;28;20029;-64
2023/05/02 11:04:06;;;;;;;8.07;7.27;;;16.80;70.60;;;;;;5020022;28;20061;-64
2023/05/02 11:06:35;;;;;;;8.90;7.32;;;16.80;70.70;;;;;;5018944;28;20030;-65
2023/05/02 11:09:21;;;;;;;8.25;7.45;;;16.90;72.80;;;;;;5020306;28;20041;-64
2023/05/02 11:11:48;;;;;;;7.97;7.28;;;16.90;71.60;;;;;;5025347;28;20034;-64
2023/05/02 11:14:37;;;;;;;8.77;7.88;;;17.00;72.20;;;;;;5020593;28;20065;-64
2023/05/02 11:17:05;;;;;;;8.25;7.40;;;17.00;70.60;;;;;;5018402;28;20172;-64
2023/05/02 11:19:54;;;;;;;6.95;6.20;;;17.10;71.30;;;;;;5018672;28;20100;-64
2023/05/02 11:22:20;;;;;;;8.65;6.97;;;17.10;69.20;;;;;;5028070;28;20065;-64
2023/05/02 11:24:47;;;;;;;7.90;6.68;;;17.10;70.40;;;;;;5020203;28;20120;-64
2023/05/02 11:27:28;;;;;;;7.53;6.75;;;17.00;69.70;;;;;;5019612;28;20041;-64
2023/05/02 11:29:54;;;;;;;7.50;6.80;;;17.00;68.30;;;;;;5018555;28;20038;-64
2023/05/02 11:32:21;;;;;;;7.72;7.00;;;16.90;69.50;;;;;;5018791;28;20048;-63
2023/05/02 11:34:51;;;;;;;7.90;6.88;;;16.90;69.80;;;;;;5018720;28;20037;-64
2023/05/02 11:37:18;;;;;;;7.60;6.72;;;16.80;69.50;;;;;;5017933;28;20091;-64
2023/05/02 11:39:47;;;;;;;9.45;6.93;;;16.80;69.70;;;;;;5018628;28;20068;-64
2023/05/02 11:42:29;;;;;;;7.55;6.75;;;16.80;71.20;;;;;;5018507;28;20030;-64
2023/05/02 11:44:59;;;;;;;5.78;5.22;;;16.80;68.40;;;;;;5018537;28;20037;-64
2023/05/02 11:47:26;;;;;;;4.57;4.18;;;16.70;68.90;;;;;;5018710;28;20116;-64
2023/05/02 11:49:55;;;;;;;5.47;4.80;;;16.80;69.30;;;;;;5017665;28;20527;-64
2023/05/02 11:52:21;;;;;;;7.75;5.70;;;16.80;68.30;;;;;;5018307;28;20169;-64
2023/05/02 11:54:48;;;;;;;7.47;6.68;;;16.90;67.40;;;;;;5016464;28;20098;-64
2023/05/02 11:57:14;;;;;;;5.85;5.35;;;16.80;67.10;;;;;;5019727;28;20501;-64
2023/05/02 11:59:52;;;;;;;6.50;5.90;;;16.90;68.10;;;;;;5018608;28;20148;-64
2023/05/02 12:02:19;;;;;;;7.80;6.90;;;17.00;67.10;;;;;;5019305;28;20509;-64
2023/05/02 12:04:45;;;;;;;7.20;6.50;;;16.90;67.50;;;;;;5019209;28;20560;-64
2023/05/02 12:07:11;;;;;;;8.38;6.60;;;17.00;68.70;;;;;;5019423;28;20037;-64
2023/05/02 12:09:52;;;;;;;6.70;6.10;;;17.10;69.90;;;;;;5016591;28;20038;-64
2023/05/02 12:12:21;;;;;;;6.32;5.75;;;17.30;69.70;;;;;;5022053;28;20040;-64
2023/05/02 12:14:47;;;;;;;6.75;6.03;;;17.30;69.50;;;;;;5018486;28;20118;-64
2023/05/02 12:17:13;;;;;;;6.00;5.50;;;17.40;69.50;;;;;;5018215;28;20521;-64
2023/05/02 12:19:39;;;;;;;6.25;5.50;;;17.70;68.60;;;;;;5018987;28;20056;-64
2023/05/02 12:22:06;;;;;;;5.10;4.60;;;17.50;66.10;;;;;;5016334;28;20417;-64
2023/05/02 12:24:32;;;;;;;5.53;4.97;;;17.50;66.60;;;;;;5016028;28;20459;-64
2023/05/02 12:27:14;;;;;;;5.10;4.60;;;17.50;66.70;;;;;;5017625;28;20030;-64
2023/05/02 12:29:42;;;;;;;6.68;5.20;;;17.60;66.00;;;;;;5019260;28;20041;-64
2023/05/02 12:32:08;;;;;;;5.68;5.18;;;17.60;66.50;;;;;;5032823;28;20092;-64
2023/05/02 12:34:35;;;;;;;6.50;5.90;;;17.60;66.60;;;;;;4999448;28;20034;-64
2023/05/02 12:37:02;;;;;;;6.53;5.45;;;17.60;65.40;;;;;;4997418;28;20145;-64
2023/05/02 12:39:38;;;;;;;6.65;5.82;;;17.60;65.40;;;;;;4997891;28;20033;-65
2023/05/02 12:42:14;;;;;;;6.78;6.15;;;17.60;65.00;;;;;;4996280;28;20502;-64
2023/05/02 12:44:44;;;;;;;6.25;5.65;;;17.60;66.90;;;;;;4997562;28;20494;-65
2023/05/02 12:47:12;;;;;;;6.70;5.93;;;17.50;67.90;;;;;;4997771;28;20038;-64
2023/05/02 12:49:57;;;;;;;6.28;5.68;;;17.50;67.20;;;;;;4997940;28;20030;-64
2023/05/02 12:52:45;;;;;;;6.57;5.97;;;17.50;68.50;;;;;;4997923;28;20121;-65